createdAt,value
2018-06-25T00:01:49.204Z,69.60
2018-06-25T00:04:18.820Z,71.70
2018-06-25T00:06:48.664Z,72.80
2018-06-25T00:09:18.342Z,72.40
2018-06-25T00:11:47.995Z,72.20
2018-06-25T00:14:17.693Z,72.50
2018-06-25T00:16:47.284Z,71.30
2018-06-25T00:19:16.874Z,72.30
2018-06-25T00:21:46.500Z,71.50
2018-06-25T00:24:16.830Z,70.70
2018-06-25T00:26:46.497Z,72.20
2018-06-25T00:29:16.159Z,72.20
2018-06-25T00:37:29.619Z,71.00
2018-06-25T00:39:59.276Z,71.70
2018-06-25T00:42:30.280Z,71.60
2018-06-25T00:44:59.958Z,72.80
2018-06-25T00:47:29.548Z,74.40
2018-06-25T00:49:59.168Z,74.30
2018-06-25T00:52:28.763Z,75.40
2018-06-25T00:54:58.621Z,75.20
2018-06-25T00:57:28.444Z,76.40
2018-06-25T00:59:58.655Z,75.00
2018-06-25T01:02:28.280Z,73.50
2018-06-25T01:04:57.996Z,74.50
2018-06-25T01:07:28.828Z,75.20
2018-06-25T01:10:01.170Z,73.60
2018-06-25T01:15:08.463Z,71.80
2018-06-25T01:17:38.735Z,71.40
2018-06-25T01:20:08.371Z,72.30
2018-06-25T01:22:38.150Z,71.40
2018-06-25T01:25:07.836Z,70.90
2018-06-25T01:30:13.316Z,72.60
2018-06-25T01:32:44.824Z,72.50
2018-06-25T01:35:14.928Z,72.30
2018-06-25T01:37:44.598Z,71.90
2018-06-25T01:40:14.613Z,71.60
2018-06-25T01:42:44.569Z,72.50
2018-06-25T01:45:21.187Z,72.60
2018-06-25T01:47:51.749Z,71.60
2018-06-25T01:50:22.389Z,73.40
2018-06-25T01:52:53.838Z,72.70
2018-06-25T01:55:23.990Z,72.80
2018-06-25T01:57:55.703Z,74.60
2018-06-25T02:00:26.000Z,75.70
2018-06-25T02:02:56.433Z,76.40
2018-06-25T02:05:26.654Z,74.20
2018-06-25T02:07:58.008Z,72.60
2018-06-25T02:10:29.534Z,72.50
2018-06-25T02:12:59.278Z,72.10
2018-06-25T02:15:30.113Z,72.00
2018-06-25T02:18:00.639Z,72.20
2018-06-25T02:20:30.872Z,72.60
2018-06-25T02:23:01.810Z,73.20
2018-06-25T02:25:32.307Z,73.30
2018-06-25T02:28:02.789Z,73.10
2018-06-25T02:30:54.482Z,73.70
2018-06-25T02:33:25.092Z,73.40
2018-06-25T02:35:55.445Z,72.40
2018-06-25T02:38:25.591Z,72.70
2018-06-25T02:40:55.518Z,72.20
2018-06-25T02:43:26.023Z,71.70
2018-06-25T02:45:55.859Z,70.90
2018-06-25T02:48:27.310Z,71.20
2018-06-25T02:50:57.113Z,70.80
2018-06-25T02:53:27.029Z,72.20
2018-06-25T02:58:32.277Z,71.20
2018-06-25T03:01:02.394Z,71.80
2018-06-25T03:03:35.903Z,72.10
2018-06-25T03:06:06.147Z,71.90
2018-06-25T03:08:40.254Z,71.00
2018-06-25T03:11:10.435Z,70.80
2018-06-25T03:13:40.248Z,70.70
2018-06-25T03:16:10.568Z,71.20
2018-06-25T03:18:41.084Z,71.60
2018-06-25T03:21:17.228Z,71.10
2018-06-25T03:23:46.834Z,72.30
2018-06-25T03:26:16.452Z,72.30
2018-06-25T03:28:49.311Z,71.20
2018-06-25T03:31:18.920Z,71.00
2018-06-25T03:36:28.887Z,72.60
2018-06-25T03:38:58.549Z,73.30
2018-06-25T03:41:29.777Z,72.70
2018-06-25T03:43:59.707Z,71.60
2018-06-25T03:46:29.499Z,71.00
2018-06-25T03:48:59.259Z,72.20
2018-06-25T03:51:28.922Z,72.10
2018-06-25T03:56:35.622Z,71.60
2018-06-25T03:59:05.494Z,71.60
2018-06-25T04:01:39.359Z,72.60
2018-06-25T04:04:09.064Z,72.30
2018-06-25T04:06:38.722Z,72.10
2018-06-25T04:09:11.028Z,71.80
2018-06-25T04:11:42.709Z,71.80
2018-06-25T04:14:13.149Z,71.80
2018-06-25T04:16:43.480Z,73.00
2018-06-25T04:19:13.672Z,71.70
2018-06-25T04:21:44.895Z,71.10
2018-06-25T04:24:14.505Z,72.10
2018-06-25T04:26:44.147Z,72.90
2018-06-25T04:29:13.819Z,72.50
2018-06-25T04:31:43.427Z,71.90
2018-06-25T04:34:13.004Z,72.00
2018-06-25T04:36:42.620Z,71.60
2018-06-25T04:39:12.205Z,73.00
2018-06-25T04:41:41.821Z,72.40
2018-06-25T04:44:11.424Z,72.60
2018-06-25T04:46:41.710Z,73.70
2018-06-25T04:49:11.292Z,73.10
2018-06-25T04:51:40.906Z,72.60
2018-06-25T04:54:10.563Z,72.50
2018-06-25T04:56:40.442Z,71.60
2018-06-25T04:59:10.131Z,70.70
2018-06-25T05:01:39.723Z,72.80
2018-06-25T05:04:09.345Z,71.50
2018-06-25T05:06:38.980Z,71.60
2018-06-25T05:09:09.497Z,71.90
2018-06-25T05:14:14.512Z,71.50
2018-06-25T05:16:44.232Z,71.30
2018-06-25T05:19:13.888Z,70.50
2018-06-25T05:21:43.524Z,70.40
2018-06-25T05:24:13.385Z,69.90
2018-06-25T05:26:43.068Z,70.80
2018-06-25T05:29:12.751Z,69.90
2018-06-25T05:31:42.345Z,70.50
2018-06-25T05:34:11.989Z,70.90
2018-06-25T05:36:41.551Z,71.10
2018-06-25T05:39:12.261Z,72.00
2018-06-25T05:41:42.580Z,72.10
2018-06-25T05:44:12.644Z,71.50
2018-06-25T05:46:42.216Z,71.10
2018-06-25T05:49:12.014Z,71.80
2018-06-25T05:51:41.689Z,71.00
2018-06-25T05:54:11.293Z,71.70
2018-06-25T05:56:40.916Z,70.40
2018-06-25T05:59:10.637Z,71.80
2018-06-25T06:01:40.384Z,72.40
2018-06-25T06:04:10.011Z,71.50
2018-06-25T06:06:39.658Z,70.50
2018-06-25T06:09:10.032Z,70.00
2018-06-25T06:11:39.689Z,69.40
2018-06-25T06:14:09.328Z,70.60
2018-06-25T06:16:38.945Z,70.30
2018-06-25T06:19:08.648Z,71.60
2018-06-25T06:21:38.297Z,71.40
2018-06-25T06:24:08.288Z,72.70
2018-06-25T06:26:37.992Z,71.50
2018-06-25T06:29:07.633Z,71.30
2018-06-25T06:31:37.295Z,70.30
2018-06-25T06:34:06.957Z,70.50
2018-06-25T06:36:36.681Z,70.20
2018-06-25T06:39:09.780Z,69.90
2018-06-25T06:41:39.491Z,68.70
2018-06-25T06:44:09.269Z,68.00
2018-06-25T06:46:38.912Z,68.60
2018-06-25T06:49:08.590Z,69.40
2018-06-25T06:51:38.297Z,67.60
2018-06-25T06:54:08.185Z,67.80
2018-06-25T06:56:37.863Z,67.60
2018-06-25T06:59:07.677Z,68.80
2018-06-25T07:01:37.440Z,68.70
2018-06-25T07:04:07.333Z,70.40
2018-06-25T07:06:37.000Z,70.10
2018-06-25T07:09:09.294Z,67.50
2018-06-25T07:11:38.934Z,68.50
2018-06-25T07:14:09.302Z,70.60
2018-06-25T07:16:40.045Z,71.10
2018-06-25T07:19:10.010Z,70.40
2018-06-25T07:21:40.560Z,69.50
2018-06-25T07:24:10.313Z,71.70
2018-06-25T07:26:40.223Z,70.80
2018-06-25T07:29:09.909Z,68.70
2018-06-25T07:31:39.644Z,68.10
2018-06-25T07:34:09.400Z,69.20
2018-06-25T07:36:39.158Z,66.90
2018-06-25T07:39:09.636Z,68.70
2018-06-25T07:41:39.349Z,67.80
2018-06-25T07:44:09.009Z,66.70
2018-06-25T07:46:38.737Z,67.70
2018-06-25T07:49:08.500Z,65.40
2018-06-25T07:51:38.132Z,66.90
2018-06-25T07:54:07.850Z,69.10
2018-06-25T07:56:37.520Z,67.30
2018-06-25T07:59:07.241Z,68.00
2018-06-25T08:01:37.004Z,68.20
2018-06-25T08:04:06.776Z,70.50
2018-06-25T08:06:36.376Z,66.80
2018-06-25T08:09:08.729Z,64.20
2018-06-25T08:11:38.486Z,66.50
2018-06-25T08:14:08.258Z,63.30
2018-06-25T08:16:39.461Z,71.70
2018-06-25T08:19:08.990Z,68.30
2018-06-25T08:21:38.651Z,67.60
2018-06-25T08:24:10.207Z,66.70
2018-06-25T08:26:39.952Z,64.80
2018-06-25T08:29:09.656Z,64.20
2018-06-25T08:31:39.231Z,61.80
2018-06-25T08:34:08.966Z,65.50
2018-06-25T08:39:13.752Z,64.70
2018-06-25T08:41:43.363Z,63.00
2018-06-25T08:44:12.963Z,65.00
2018-06-25T08:46:42.627Z,63.00
2018-06-25T08:49:12.499Z,61.00
2018-06-25T08:51:42.380Z,60.50
2018-06-25T08:54:12.031Z,62.00
2018-06-25T08:56:41.708Z,63.60
2018-06-25T08:59:11.335Z,62.40
2018-06-25T09:01:40.987Z,64.40
2018-06-25T09:04:10.596Z,61.30
2018-06-25T09:06:40.215Z,62.00
2018-06-25T09:09:11.376Z,62.40
2018-06-25T09:11:41.066Z,59.90
2018-06-25T09:14:10.791Z,59.90
2018-06-25T09:16:40.515Z,59.30
2018-06-25T09:19:10.159Z,58.90
2018-06-25T09:21:39.961Z,60.50
2018-06-25T09:24:09.625Z,61.00
2018-06-25T09:26:40.743Z,58.40
2018-06-25T09:29:11.555Z,59.20
2018-06-25T09:31:41.252Z,60.40
2018-06-25T09:34:16.188Z,57.70
2018-06-25T09:36:45.845Z,60.40
2018-06-25T09:39:15.585Z,62.40
2018-06-25T09:41:45.603Z,62.30
2018-06-25T09:44:15.072Z,60.50
2018-06-25T09:46:45.072Z,61.40
2018-06-25T09:49:14.644Z,62.40
2018-06-25T09:51:44.294Z,59.90
2018-06-25T09:54:14.307Z,59.50
2018-06-25T09:56:44.050Z,59.70
2018-06-25T09:59:13.768Z,56.30
2018-06-25T10:01:43.433Z,58.20
2018-06-25T10:04:13.112Z,56.50
2018-06-25T10:06:42.944Z,58.50
2018-06-25T10:09:13.247Z,57.80
2018-06-25T10:11:43.512Z,58.60
2018-06-25T10:14:13.236Z,59.00
2018-06-25T10:16:42.907Z,58.50
2018-06-25T10:19:12.581Z,57.80
2018-06-25T10:21:42.356Z,57.70
2018-06-25T10:24:12.207Z,56.30
2018-06-25T10:26:41.896Z,56.70
2018-06-25T10:29:11.552Z,57.90
2018-06-25T10:31:41.273Z,57.90
2018-06-25T10:34:10.989Z,58.60
2018-06-25T10:36:40.684Z,58.60
2018-06-25T10:39:11.067Z,58.70
2018-06-25T10:41:41.032Z,58.70
2018-06-25T10:44:10.775Z,59.00
2018-06-25T10:46:40.684Z,60.00
2018-06-25T10:49:10.509Z,59.00
2018-06-25T10:51:40.303Z,58.60
2018-06-25T10:54:09.894Z,58.10
2018-06-25T11:08:10.555Z,58.30
2018-06-25T11:13:41.596Z,58.00
2018-06-25T11:16:19.974Z,58.30
2018-06-25T11:19:03.996Z,57.50
2018-06-25T11:24:28.692Z,58.30
2018-06-25T11:27:18.258Z,58.70
2018-06-25T11:30:00.316Z,58.00
2018-06-25T11:38:15.028Z,55.70
2018-06-25T11:41:00.171Z,57.20
2018-06-25T11:49:17.730Z,55.60
2018-06-25T11:55:00.032Z,58.20
2018-06-25T11:57:38.711Z,58.00
2018-06-25T12:00:21.505Z,57.80
2018-06-25T12:03:05.227Z,57.10
2018-06-25T12:05:40.352Z,56.00
2018-06-25T12:08:13.518Z,56.90
2018-06-25T12:10:46.285Z,55.20
2018-06-25T12:13:18.284Z,56.10
2018-06-25T12:15:50.660Z,57.00
2018-06-25T12:18:22.772Z,56.00
2018-06-25T12:20:54.764Z,56.90
2018-06-25T12:23:27.465Z,57.20
2018-06-25T12:26:00.249Z,58.50
2018-06-25T12:28:33.067Z,60.10
2018-06-25T12:31:06.157Z,59.50
2018-06-25T12:33:39.176Z,59.40
2018-06-25T12:36:12.984Z,59.70
2018-06-25T12:38:44.973Z,61.30
2018-06-25T12:41:16.922Z,60.20
2018-06-25T12:43:50.106Z,60.70
2018-06-25T12:46:22.724Z,59.90
2018-06-25T12:48:55.602Z,60.00
2018-06-25T12:51:27.518Z,59.20
2018-06-25T12:54:02.473Z,59.50
2018-06-25T12:56:34.599Z,58.30
2018-06-25T12:59:07.373Z,58.90
2018-06-25T13:01:39.728Z,59.10
2018-06-25T13:04:12.833Z,58.50
2018-06-25T13:06:45.452Z,58.20
2018-06-25T13:09:17.184Z,58.30
2018-06-25T13:11:49.533Z,57.80
2018-06-25T13:14:23.389Z,57.30
2018-06-25T13:16:56.435Z,58.10
2018-06-25T13:19:27.418Z,57.80
2018-06-25T13:22:00.294Z,57.70
2018-06-25T13:27:04.532Z,60.50
2018-06-25T13:29:36.941Z,58.80
2018-06-25T13:32:08.683Z,58.80
2018-06-25T13:34:41.003Z,56.30
2018-06-25T13:37:13.035Z,55.90
2018-06-25T13:39:45.152Z,54.20
2018-06-25T13:42:18.345Z,54.50
2018-06-25T13:44:50.295Z,53.80
2018-06-25T13:47:23.285Z,53.70
2018-06-25T13:49:55.379Z,54.90
2018-06-25T13:52:30.202Z,55.20
2018-06-25T13:55:02.362Z,58.30
2018-06-25T13:57:35.831Z,61.70
2018-06-25T14:00:08.745Z,62.00
2018-06-25T14:02:40.905Z,65.00
2018-06-25T14:05:12.546Z,63.90
2018-06-25T14:07:44.423Z,66.30
2018-06-25T14:10:16.763Z,65.70
2018-06-25T14:12:48.793Z,64.20
2018-06-25T14:15:20.472Z,64.60
2018-06-25T14:17:52.100Z,63.10
2018-06-25T14:20:23.807Z,64.00
2018-06-25T14:22:55.391Z,62.00
2018-06-25T14:25:27.580Z,60.90
2018-06-25T14:28:06.665Z,61.00
2018-06-25T14:30:45.612Z,59.00
2018-06-25T14:33:19.549Z,59.60
2018-06-25T14:35:51.433Z,62.10
2018-06-25T14:38:22.914Z,55.70
2018-06-25T14:40:57.300Z,56.40
2018-06-25T14:43:29.137Z,55.40
2018-06-25T14:46:01.293Z,56.00
2018-06-25T14:48:34.189Z,56.50
2018-06-25T14:51:06.724Z,58.10
2018-06-25T14:53:39.418Z,56.00
2018-06-25T14:56:11.206Z,55.30
2018-06-25T14:58:43.393Z,56.10
2018-06-25T15:01:16.105Z,55.00
2018-06-25T15:03:49.012Z,53.30
2018-06-25T15:06:22.711Z,55.60
2018-06-25T15:08:54.233Z,54.40
2018-06-25T15:11:25.940Z,54.40
2018-06-25T15:13:57.144Z,52.10
2018-06-25T15:16:28.461Z,51.90
2018-06-25T15:19:00.936Z,52.20
2018-06-25T15:21:42.508Z,53.20
2018-06-25T15:24:31.133Z,54.30
2018-06-25T15:27:16.013Z,53.00
2018-06-25T15:29:53.520Z,52.60
2018-06-25T15:32:34.534Z,53.10
2018-06-25T15:35:08.178Z,53.60
2018-06-25T15:37:40.433Z,54.30
2018-06-25T15:40:12.536Z,54.20
2018-06-25T15:42:44.655Z,53.60
2018-06-25T15:45:17.070Z,56.30
2018-06-25T15:47:49.387Z,56.10
2018-06-25T15:50:21.471Z,55.90
2018-06-25T15:52:53.578Z,55.80
2018-06-25T15:55:25.296Z,53.00
2018-06-25T15:57:58.157Z,50.90
2018-06-25T16:00:30.243Z,51.30
2018-06-25T16:03:02.647Z,51.90
2018-06-25T16:05:34.624Z,52.70
2018-06-25T16:08:06.855Z,51.70
2018-06-25T16:10:39.863Z,53.10
2018-06-25T16:13:12.100Z,51.90
2018-06-25T16:15:44.570Z,51.60
2018-06-25T16:18:18.803Z,51.20
2018-06-25T16:20:52.276Z,50.40
2018-06-25T16:23:26.095Z,49.30
2018-06-25T16:26:05.269Z,48.70
2018-06-25T16:28:42.766Z,48.30
2018-06-25T16:31:18.892Z,47.10
2018-06-25T16:33:51.989Z,47.00
2018-06-25T16:36:27.502Z,47.00
2018-06-25T16:39:09.623Z,47.80
2018-06-25T16:41:46.399Z,48.60
2018-06-25T16:44:22.320Z,49.70
2018-06-25T16:46:57.096Z,49.50
2018-06-25T16:52:13.487Z,49.40
2018-06-25T16:54:54.707Z,52.40
2018-06-25T16:57:38.342Z,51.40
2018-06-25T17:00:15.480Z,52.30
2018-06-25T17:02:49.785Z,53.80
2018-06-25T17:05:29.670Z,55.00
2018-06-25T17:10:43.833Z,55.10
2018-06-25T17:13:23.113Z,53.70
2018-06-25T17:15:58.449Z,55.70
2018-06-25T17:18:46.146Z,55.50
2018-06-25T17:21:19.355Z,56.10
2018-06-25T17:23:52.864Z,54.80
2018-06-25T17:26:24.985Z,55.30
2018-06-25T17:28:58.338Z,51.30
2018-06-25T17:31:31.164Z,53.00
2018-06-25T17:34:03.768Z,54.60
2018-06-25T17:36:37.301Z,53.70
2018-06-25T17:39:10.688Z,54.10
2018-06-25T17:41:47.142Z,55.00
2018-06-25T17:44:25.430Z,54.00
2018-06-25T17:46:58.290Z,53.70
2018-06-25T17:49:31.611Z,55.00
2018-06-25T17:52:05.126Z,56.30
2018-06-25T17:54:42.013Z,55.30
2018-06-25T17:57:23.115Z,55.90
2018-06-25T18:00:02.211Z,56.60
2018-06-25T18:02:41.505Z,56.10
2018-06-25T18:05:16.903Z,55.40
2018-06-25T18:07:59.213Z,56.00
2018-06-25T18:10:32.388Z,55.20
2018-06-25T18:13:09.854Z,54.40
2018-06-25T18:15:43.834Z,54.50
2018-06-25T18:18:23.470Z,54.90
2018-06-25T18:20:56.819Z,55.20
2018-06-25T18:23:35.899Z,55.70
2018-06-25T18:26:17.768Z,56.70
2018-06-25T18:28:58.000Z,57.00
2018-06-25T18:31:35.675Z,57.70
2018-06-25T18:37:00.108Z,58.00
2018-06-25T18:39:38.238Z,58.60
2018-06-25T18:45:13.584Z,58.10
2018-06-25T18:47:46.405Z,57.40
2018-06-25T18:50:19.471Z,57.30
2018-06-25T18:52:55.627Z,57.80
2018-06-25T18:55:30.345Z,58.50
2018-06-25T18:58:04.020Z,57.60
2018-06-25T19:00:40.667Z,57.30
2018-06-25T19:03:14.093Z,57.60
2018-06-25T19:05:47.653Z,56.90
2018-06-25T19:08:24.708Z,57.20
2018-06-25T19:11:04.405Z,58.10
2018-06-25T19:13:38.218Z,58.20
2018-06-25T19:16:16.598Z,58.30
2018-06-25T19:18:52.581Z,58.50
2018-06-25T19:21:25.701Z,59.10
2018-06-25T19:24:06.605Z,58.60
2018-06-25T19:26:45.797Z,59.10
2018-06-25T19:29:29.836Z,59.70
2018-06-25T19:32:07.767Z,60.60
2018-06-25T19:34:42.238Z,61.40
2018-06-25T19:37:19.718Z,60.10
2018-06-25T19:42:34.946Z,60.20
2018-06-25T19:45:13.279Z,60.30
2018-06-25T19:47:54.289Z,60.80
2018-06-25T19:50:28.693Z,61.80
2018-06-25T19:53:05.780Z,61.10
2018-06-25T19:55:38.283Z,62.00
2018-06-25T19:58:10.440Z,61.20
2018-06-25T20:00:45.316Z,60.20
2018-06-25T20:03:19.405Z,60.90
2018-06-25T20:05:53.883Z,61.60
2018-06-25T20:08:31.089Z,62.30
2018-06-25T20:11:05.226Z,62.90
2018-06-25T20:13:44.481Z,62.90
2018-06-25T20:16:23.192Z,61.80
2018-06-25T20:19:01.719Z,62.20
2018-06-25T20:21:37.377Z,61.50
2018-06-25T20:24:10.554Z,61.50
2018-06-25T20:26:42.992Z,61.50
2018-06-25T20:29:14.796Z,61.60
2018-06-25T20:31:47.209Z,61.50
2018-06-25T20:34:20.669Z,61.40
2018-06-25T20:36:52.573Z,61.30
2018-06-25T20:39:24.789Z,60.40
2018-06-25T20:42:14.325Z,60.30
2018-06-25T20:44:48.235Z,61.30
2018-06-25T20:47:21.421Z,61.50
2018-06-25T20:49:53.486Z,60.90
2018-06-25T20:52:25.786Z,61.70
2018-06-25T20:54:57.564Z,62.30
2018-06-25T20:57:30.910Z,61.40
2018-06-25T21:00:05.157Z,62.60
2018-06-25T21:02:39.574Z,63.30
2018-06-25T21:05:11.623Z,63.20
2018-06-25T21:07:45.117Z,63.90
2018-06-25T21:10:21.149Z,62.50
2018-06-25T21:12:55.869Z,64.30
2018-06-25T21:15:33.032Z,64.20
2018-06-25T21:18:06.956Z,63.30
2018-06-25T21:20:40.382Z,63.40
2018-06-25T21:23:20.561Z,63.00
2018-06-25T21:26:00.095Z,64.90
2018-06-25T21:28:35.259Z,64.20
2018-06-25T21:31:14.012Z,63.70
2018-06-25T21:33:51.652Z,63.50
2018-06-25T21:36:25.918Z,63.40
2018-06-25T21:39:05.689Z,63.90
2018-06-25T21:44:20.133Z,63.40
2018-06-25T21:46:53.517Z,64.70
2018-06-25T21:49:27.596Z,64.50
2018-06-25T21:52:07.604Z,64.80
2018-06-25T21:54:40.037Z,64.90
2018-06-25T21:57:14.196Z,63.80
2018-06-25T21:59:48.113Z,63.10
2018-06-25T22:02:29.990Z,63.10
2018-06-25T22:05:08.198Z,62.90
2018-06-25T22:07:41.346Z,64.70
2018-06-25T22:10:16.427Z,63.60
2018-06-25T22:12:52.768Z,64.20
2018-06-25T22:15:29.193Z,64.80
2018-06-25T22:18:07.522Z,64.80
2018-06-25T22:23:22.504Z,64.80
2018-06-25T22:31:28.928Z,64.50
2018-06-25T22:34:08.990Z,63.40
2018-06-25T22:36:47.538Z,63.20
2018-06-25T22:39:20.189Z,61.90
2018-06-25T22:41:53.353Z,64.40
2018-06-25T22:44:30.037Z,64.70
2018-06-25T22:47:05.404Z,64.90
2018-06-25T22:49:44.000Z,64.10
2018-06-25T22:52:23.555Z,64.80
2018-06-25T22:55:02.375Z,63.80
2018-06-25T22:57:39.876Z,65.10
2018-06-25T23:00:18.862Z,64.60
2018-06-25T23:03:02.474Z,65.30
2018-06-25T23:08:28.285Z,64.60
2018-06-25T23:11:08.204Z,64.40
2018-06-25T23:13:52.065Z,65.00
2018-06-25T23:16:33.300Z,66.20
2018-06-25T23:19:20.592Z,66.20
2018-06-25T23:22:05.343Z,64.60
2018-06-25T23:24:45.943Z,65.20
2018-06-25T23:27:29.874Z,66.10
2018-06-25T23:36:06.250Z,64.40
2018-06-25T23:38:50.796Z,64.80
2018-06-25T23:41:26.152Z,65.20
2018-06-25T23:44:02.237Z,64.60
2018-06-25T23:46:35.978Z,64.00
2018-06-25T23:49:08.874Z,64.90
2018-06-25T23:51:48.058Z,65.10
2018-06-25T23:54:24.326Z,64.60
2018-06-25T23:57:02.607Z,64.10
2018-06-25T23:59:34.918Z,62.40
